createdAt,value
2019-03-27T00:02:12.720Z,99867.31
2019-03-27T00:04:38.988Z,99867.84
2019-03-27T00:07:05.189Z,99857.59
2019-03-27T00:09:31.348Z,99869.84
2019-03-27T00:11:57.620Z,99860.68
2019-03-27T00:14:23.809Z,99859.05
2019-03-27T00:16:49.979Z,99855.49
2019-03-27T00:19:16.143Z,99861.23
2019-03-27T00:21:42.348Z,99861.20
2019-03-27T00:24:08.518Z,99856.58
2019-03-27T00:26:34.686Z,99855.87
2019-03-27T00:29:00.990Z,99847.55
2019-03-27T00:31:27.159Z,99850.34
2019-03-27T00:33:53.323Z,99849.95
2019-03-27T00:36:19.618Z,99843.96
2019-03-27T00:38:45.775Z,99847.34
2019-03-27T00:41:12.040Z,99844.67
2019-03-27T00:43:38.234Z,99852.23
2019-03-27T00:46:04.515Z,99859.62
2019-03-27T00:48:30.675Z,99853.66
2019-03-27T00:50:56.975Z,99847.98
2019-03-27T00:53:23.139Z,99847.42
2019-03-27T00:55:49.291Z,99851.78
2019-03-27T00:58:15.502Z,99847.36
2019-03-27T01:00:45.262Z,99860.44
2019-03-27T01:03:11.539Z,99858.25
2019-03-27T01:05:37.830Z,99865.86
2019-03-27T01:08:04.091Z,99867.45
2019-03-27T01:10:30.357Z,99861.51
2019-03-27T01:12:56.551Z,99870.30
2019-03-27T01:15:22.714Z,99861.33
2019-03-27T01:17:48.875Z,99868.64
2019-03-27T01:20:15.076Z,99866.61
2019-03-27T01:22:41.246Z,99861.92
2019-03-27T01:25:08.411Z,99865.83
2019-03-27T01:27:35.738Z,99874.39
2019-03-27T01:30:03.075Z,99877.41
2019-03-27T01:32:29.241Z,99884.77
2019-03-27T01:34:55.546Z,99878.30
2019-03-27T01:37:21.708Z,99882.31
2019-03-27T01:39:47.976Z,99881.69
2019-03-27T01:42:14.173Z,99892.05
2019-03-27T01:44:40.334Z,99894.21
2019-03-27T01:47:06.497Z,99896.69
2019-03-27T01:49:32.802Z,99887.45
2019-03-27T01:51:58.977Z,99895.80
2019-03-27T01:54:25.148Z,99901.72
2019-03-27T01:56:51.337Z,99894.41
2019-03-27T01:59:17.552Z,99896.73
2019-03-27T02:01:43.829Z,99897.95
2019-03-27T02:04:10.037Z,99902.60
2019-03-27T02:06:36.211Z,99893.33
2019-03-27T02:09:03.873Z,99899.10
2019-03-27T02:11:30.072Z,99897.81
2019-03-27T02:13:56.335Z,99894.61
2019-03-27T02:16:22.664Z,99891.75
2019-03-27T02:18:48.854Z,99898.81
2019-03-27T02:21:15.022Z,99891.84
2019-03-27T02:23:41.290Z,99896.25
2019-03-27T02:26:07.482Z,99898.30
2019-03-27T02:28:33.748Z,99903.97
2019-03-27T02:30:59.915Z,99911.63
2019-03-27T02:33:26.099Z,99910.56
2019-03-27T02:35:52.261Z,99907.52
2019-03-27T02:38:18.434Z,99909.28
2019-03-27T02:40:44.642Z,99916.27
2019-03-27T02:43:10.906Z,99915.48
2019-03-27T02:45:37.071Z,99915.52
2019-03-27T02:48:03.289Z,99927.09
2019-03-27T02:50:29.445Z,99924.33
2019-03-27T02:52:55.611Z,99926.39
2019-03-27T02:55:21.815Z,99933.59
2019-03-27T02:57:47.984Z,99936.41
2019-03-27T03:00:14.899Z,99939.05
2019-03-27T03:02:41.198Z,99943.98
2019-03-27T03:05:08.162Z,99945.16
2019-03-27T03:07:35.429Z,99945.45
2019-03-27T03:10:01.933Z,99952.06
2019-03-27T03:12:28.090Z,99950.41
2019-03-27T03:14:54.256Z,99956.16
2019-03-27T03:17:20.456Z,99957.27
2019-03-27T03:19:46.633Z,99961.02
2019-03-27T03:22:12.862Z,99959.06
2019-03-27T03:24:39.185Z,99964.01
2019-03-27T03:27:05.356Z,99966.01
2019-03-27T03:29:31.515Z,99971.94
2019-03-27T03:31:57.725Z,99970.91
2019-03-27T03:34:23.883Z,99976.36
2019-03-27T03:36:50.046Z,99980.83
2019-03-27T03:39:16.234Z,99978.47
2019-03-27T03:41:42.597Z,99982.86
2019-03-27T03:44:08.854Z,99990.86
2019-03-27T03:46:35.053Z,99984.87
2019-03-27T03:49:01.213Z,99988.44
2019-03-27T03:51:27.787Z,99984.58
2019-03-27T03:53:54.292Z,99980.23
2019-03-27T03:56:22.056Z,99977.75
2019-03-27T03:58:49.310Z,99981.14
2019-03-27T04:01:18.470Z,99984.23
2019-03-27T04:03:46.842Z,99988.11
2019-03-27T04:06:13.105Z,99982.80
2019-03-27T04:08:39.298Z,99992.51
2019-03-27T04:11:05.467Z,99985.78
2019-03-27T04:13:31.620Z,100004.66
2019-03-27T04:15:57.925Z,100005.66
2019-03-27T04:18:24.086Z,100000.74
2019-03-27T04:20:50.271Z,100005.55
2019-03-27T04:23:16.445Z,100005.75
2019-03-27T04:26:07.050Z,100007.48
2019-03-27T04:28:10.672Z,100011.27
2019-03-27T04:30:36.873Z,100007.39
2019-03-27T04:33:03.137Z,100014.61
2019-03-27T04:35:29.298Z,100012.88
2019-03-27T04:37:55.506Z,100018.03
2019-03-27T04:40:21.683Z,100016.58
2019-03-27T04:42:47.856Z,100024.20
2019-03-27T04:45:15.665Z,100019.19
2019-03-27T04:47:41.825Z,100018.34
2019-03-27T04:50:08.084Z,100025.75
2019-03-27T04:52:34.291Z,100022.44
2019-03-27T04:55:00.449Z,100021.40
2019-03-27T04:57:26.729Z,100019.16
2019-03-27T04:59:52.939Z,100026.14
2019-03-27T05:02:20.159Z,100024.00
2019-03-27T05:04:46.420Z,100027.31
2019-03-27T05:07:13.827Z,100027.84
2019-03-27T05:09:40.281Z,100034.92
2019-03-27T05:12:06.448Z,100035.05
2019-03-27T05:14:32.643Z,100035.58
2019-03-27T05:16:58.800Z,100039.97
2019-03-27T05:19:25.146Z,100042.65
2019-03-27T05:21:51.689Z,100049.87
2019-03-27T05:24:17.871Z,100046.98
2019-03-27T05:26:44.042Z,100053.74
2019-03-27T05:29:10.293Z,100051.40
2019-03-27T05:31:36.492Z,100054.81
2019-03-27T05:34:02.662Z,100056.08
2019-03-27T05:36:28.862Z,100064.73
2019-03-27T05:38:55.035Z,100061.92
2019-03-27T05:41:21.197Z,100066.63
2019-03-27T05:43:47.399Z,100066.39
2019-03-27T05:46:13.574Z,100069.36
2019-03-27T05:48:39.846Z,100073.88
2019-03-27T05:51:06.272Z,100076.23
2019-03-27T05:53:32.533Z,100077.83
2019-03-27T05:55:58.728Z,100082.04
2019-03-27T05:58:24.924Z,100083.00
2019-03-27T06:00:51.096Z,100078.92
2019-03-27T06:03:18.588Z,100085.09
2019-03-27T06:05:44.830Z,100088.95
2019-03-27T06:08:10.993Z,100091.26
2019-03-27T06:10:37.155Z,100108.54
2019-03-27T06:13:03.363Z,100096.30
2019-03-27T06:15:29.618Z,100105.02
2019-03-27T06:17:55.791Z,100099.53
2019-03-27T06:20:21.983Z,100100.80
2019-03-27T06:22:48.156Z,100093.58
2019-03-27T06:25:15.548Z,100102.86
2019-03-27T06:27:41.898Z,100099.03
2019-03-27T06:30:08.776Z,100110.23
2019-03-27T06:32:35.337Z,100105.35
2019-03-27T06:35:01.554Z,100108.35
2019-03-27T06:37:27.729Z,100108.91
2019-03-27T06:39:53.990Z,100109.41
2019-03-27T06:42:20.179Z,100113.02
2019-03-27T06:44:46.364Z,100115.19
2019-03-27T06:47:12.684Z,100113.08
2019-03-27T06:49:38.885Z,100120.64
2019-03-27T06:52:05.047Z,100118.49
2019-03-27T06:54:31.227Z,100120.85
2019-03-27T06:56:57.431Z,100126.15
2019-03-27T06:59:23.602Z,100124.53
2019-03-27T07:01:49.771Z,100120.38
2019-03-27T07:04:16.119Z,100118.56
2019-03-27T07:06:42.289Z,100116.62
2019-03-27T07:09:08.452Z,100118.97
2019-03-27T07:11:34.671Z,100122.15
2019-03-27T07:14:00.818Z,100112.70
2019-03-27T07:16:26.990Z,100110.09
2019-03-27T07:18:53.293Z,100108.61
2019-03-27T07:21:19.467Z,100118.95
2019-03-27T07:23:45.628Z,100121.52
2019-03-27T07:26:11.823Z,100127.02
2019-03-27T07:28:37.993Z,100123.97
2019-03-27T07:31:05.113Z,100131.55
2019-03-27T07:33:31.325Z,100140.25
2019-03-27T07:35:57.483Z,100143.41
2019-03-27T07:38:23.750Z,100140.00
2019-03-27T07:40:49.952Z,100136.63
2019-03-27T07:43:16.112Z,100146.39
2019-03-27T07:45:42.280Z,100142.84
2019-03-27T07:48:08.477Z,100153.92
2019-03-27T07:50:35.024Z,100157.73
2019-03-27T07:53:01.190Z,100161.25
2019-03-27T07:55:27.584Z,100159.53
2019-03-27T07:57:53.734Z,100160.47
2019-03-27T08:00:21.708Z,100162.67
2019-03-27T08:02:48.000Z,100163.50
2019-03-27T08:05:14.212Z,100167.39
2019-03-27T08:07:40.386Z,100162.00
2019-03-27T08:10:06.773Z,100160.25
2019-03-27T08:12:32.944Z,100160.85
2019-03-27T08:14:59.108Z,100165.13
2019-03-27T08:17:25.403Z,100164.84
2019-03-27T08:19:51.682Z,100174.19
2019-03-27T08:22:17.844Z,100171.89
2019-03-27T08:24:44.140Z,100173.58
2019-03-27T08:27:19.250Z,100178.53
2019-03-27T08:29:45.407Z,100168.99
2019-03-27T08:32:11.703Z,100176.86
2019-03-27T08:34:37.866Z,100181.84
2019-03-27T08:37:04.132Z,100183.95
2019-03-27T08:39:30.333Z,100176.00
2019-03-27T08:41:56.520Z,100181.24
2019-03-27T08:44:22.689Z,100180.28
2019-03-27T08:46:48.885Z,100180.20
2019-03-27T08:49:21.889Z,100181.56
2019-03-27T08:51:43.095Z,100175.33
2019-03-27T08:54:09.282Z,100182.57
2019-03-27T08:56:35.444Z,100178.73
2019-03-27T08:59:01.602Z,100179.38
2019-03-27T09:01:27.808Z,100185.78
2019-03-27T09:03:54.028Z,100175.98
2019-03-27T09:06:32.988Z,100186.33
2019-03-27T09:08:48.598Z,100184.92
2019-03-27T09:11:14.766Z,100183.73
2019-03-27T09:13:40.931Z,100192.46
2019-03-27T09:16:07.118Z,100179.01
2019-03-27T09:18:33.281Z,100179.58
2019-03-27T09:20:59.532Z,100188.95
2019-03-27T09:23:25.937Z,100189.36
2019-03-27T09:25:52.204Z,100187.95
2019-03-27T09:28:18.363Z,100186.70
2019-03-27T09:30:44.562Z,100195.99
2019-03-27T09:33:10.718Z,100187.28
2019-03-27T09:35:36.885Z,100198.66
2019-03-27T09:38:03.192Z,100195.48
2019-03-27T09:40:29.364Z,100201.25
2019-03-27T09:42:55.641Z,100196.47
2019-03-27T09:45:21.837Z,100172.83
2019-03-27T09:47:48.104Z,100167.58
2019-03-27T09:50:14.256Z,100175.95
2019-03-27T09:52:40.553Z,100180.98
2019-03-27T09:55:07.117Z,100167.14
2019-03-27T09:57:33.285Z,100171.16
2019-03-27T09:59:59.494Z,100162.52
2019-03-27T10:02:25.777Z,100156.33
2019-03-27T10:04:51.931Z,100173.25
2019-03-27T10:07:18.171Z,100187.01
2019-03-27T10:09:44.437Z,100183.95
2019-03-27T10:12:10.597Z,100178.75
2019-03-27T10:14:36.800Z,100178.70
2019-03-27T10:17:02.986Z,100165.23
2019-03-27T10:19:29.124Z,100157.75
2019-03-27T10:21:55.334Z,100159.75
2019-03-27T10:24:21.607Z,100159.54
2019-03-27T10:26:47.772Z,100150.47
2019-03-27T10:29:13.958Z,100142.73
2019-03-27T10:31:40.631Z,100149.48
2019-03-27T10:34:06.786Z,100135.36
2019-03-27T10:36:32.997Z,100134.81
2019-03-27T10:38:59.161Z,100127.50
2019-03-27T10:41:25.322Z,100132.27
2019-03-27T10:43:51.513Z,100140.14
2019-03-27T10:46:17.809Z,100126.28
2019-03-27T10:48:52.423Z,100113.44
2019-03-27T10:51:12.068Z,100115.05
2019-03-27T10:53:38.250Z,100134.78
2019-03-27T10:56:04.509Z,100128.37
2019-03-27T10:58:30.816Z,100132.39
2019-03-27T11:00:56.974Z,100120.25
2019-03-27T11:03:23.297Z,100114.02
2019-03-27T11:05:49.602Z,100110.31
2019-03-27T11:08:15.827Z,100101.41
2019-03-27T11:10:41.989Z,100099.33
2019-03-27T11:13:08.292Z,100111.14
2019-03-27T11:15:34.561Z,100094.55
2019-03-27T11:18:00.720Z,100085.41
2019-03-27T11:20:31.101Z,100080.22
2019-03-27T11:22:54.981Z,100093.36
2019-03-27T11:25:21.144Z,100087.47
2019-03-27T11:27:47.352Z,100089.07
2019-03-27T11:30:13.809Z,100081.62
2019-03-27T11:32:39.971Z,100096.25
2019-03-27T11:35:06.383Z,100087.82
2019-03-27T11:37:32.546Z,100094.58
2019-03-27T11:39:58.707Z,100086.89
2019-03-27T11:42:24.896Z,100087.06
2019-03-27T11:44:51.063Z,100087.22
2019-03-27T11:47:17.228Z,100091.47
2019-03-27T11:49:43.426Z,100085.45
2019-03-27T11:52:09.591Z,100059.88
2019-03-27T11:54:35.755Z,100069.70
2019-03-27T11:57:01.958Z,100086.05
2019-03-27T11:59:28.218Z,100088.89
2019-03-27T12:01:54.374Z,100073.59
2019-03-27T12:04:20.615Z,100070.16
2019-03-27T12:06:46.877Z,100069.55
2019-03-27T12:09:13.117Z,100077.31
2019-03-27T12:11:39.410Z,100068.56
2019-03-27T12:14:05.698Z,100062.50
2019-03-27T12:16:33.680Z,100053.36
2019-03-27T12:19:01.720Z,100049.28
2019-03-27T12:21:27.876Z,100062.70
2019-03-27T12:23:54.036Z,100076.59
2019-03-27T12:26:20.332Z,100062.61
2019-03-27T12:28:46.487Z,100050.16
2019-03-27T12:31:12.644Z,100056.52
2019-03-27T12:33:38.849Z,100052.98
2019-03-27T12:36:05.008Z,100052.90
2019-03-27T12:38:31.291Z,100045.99
2019-03-27T12:40:57.497Z,100034.50
2019-03-27T12:43:23.766Z,100037.22
2019-03-27T12:45:50.021Z,100030.63
2019-03-27T12:48:16.205Z,100045.67
2019-03-27T12:50:44.288Z,100050.86
2019-03-27T12:53:10.524Z,100048.28
2019-03-27T12:55:36.739Z,100029.02
2019-03-27T12:58:03.703Z,100037.27
2019-03-27T13:00:30.480Z,100038.86
2019-03-27T13:02:56.967Z,100044.15
2019-03-27T13:05:23.139Z,100035.33
2019-03-27T13:07:50.461Z,100034.59
2019-03-27T13:10:16.940Z,100032.13
2019-03-27T13:12:43.127Z,100025.17
2019-03-27T13:15:09.390Z,100023.25
2019-03-27T13:17:35.589Z,100025.66
2019-03-27T13:20:02.248Z,100037.00
2019-03-27T13:22:28.518Z,100021.79
2019-03-27T13:24:54.705Z,100027.31
2019-03-27T13:27:20.861Z,100043.92
2019-03-27T13:29:47.444Z,100040.25
2019-03-27T13:32:13.648Z,100052.02
2019-03-27T13:34:39.794Z,100036.68
2019-03-27T13:37:05.958Z,100032.14
2019-03-27T13:39:32.152Z,100056.13
2019-03-27T13:41:58.821Z,100044.72
2019-03-27T13:44:36.388Z,100034.52
2019-03-27T13:46:53.217Z,100040.23
2019-03-27T13:49:19.548Z,100027.86
2019-03-27T13:51:45.819Z,100029.30
2019-03-27T13:54:12.303Z,100035.28
2019-03-27T13:56:38.473Z,100036.89
2019-03-27T13:59:04.639Z,100041.03
2019-03-27T14:01:30.944Z,100040.56
2019-03-27T14:03:57.217Z,100038.39
2019-03-27T14:06:23.379Z,100037.50
2019-03-27T14:08:49.571Z,100035.25
2019-03-27T14:11:15.835Z,100042.33
2019-03-27T14:13:43.599Z,100041.07
2019-03-27T14:16:09.978Z,100047.73
2019-03-27T14:18:36.149Z,100038.59
2019-03-27T14:21:02.408Z,100046.23
2019-03-27T14:23:28.710Z,100047.54
2019-03-27T14:25:54.873Z,100038.62
2019-03-27T14:28:21.031Z,100038.13
2019-03-27T14:30:49.020Z,100050.26
2019-03-27T14:33:15.185Z,100054.88
2019-03-27T14:35:41.348Z,100048.59
2019-03-27T14:38:07.641Z,100052.35
2019-03-27T14:40:33.799Z,100052.35
2019-03-27T14:42:59.966Z,100060.56
2019-03-27T14:45:26.165Z,100060.11
2019-03-27T14:47:52.423Z,100056.86
2019-03-27T14:50:18.592Z,100053.14
2019-03-27T14:52:44.794Z,100070.05
2019-03-27T14:55:10.958Z,100066.28
2019-03-27T14:57:37.530Z,100068.65
2019-03-27T15:00:06.651Z,100071.14
2019-03-27T15:02:32.911Z,100070.77
2019-03-27T15:04:59.324Z,100071.07
2019-03-27T15:07:25.621Z,100073.78
2019-03-27T15:09:51.775Z,100070.22
2019-03-27T15:12:18.009Z,100090.94
2019-03-27T15:14:44.301Z,100086.25
2019-03-27T15:17:10.573Z,100084.36
2019-03-27T15:19:36.845Z,100091.16
2019-03-27T15:22:03.034Z,100091.70
2019-03-27T15:24:29.299Z,100091.50
2019-03-27T15:26:55.458Z,100091.67
2019-03-27T15:29:24.357Z,100091.89
2019-03-27T15:31:50.515Z,100101.02
2019-03-27T15:34:16.679Z,100108.17
2019-03-27T15:36:42.967Z,100110.30
2019-03-27T15:39:09.220Z,100123.19
2019-03-27T15:41:35.377Z,100123.90
2019-03-27T15:44:01.681Z,100126.84
2019-03-27T15:46:27.948Z,100120.17
2019-03-27T15:48:54.206Z,100125.77
2019-03-27T15:51:20.410Z,100126.62
2019-03-27T15:53:47.487Z,100136.19
2019-03-27T15:56:13.856Z,100130.94
2019-03-27T15:58:40.049Z,100135.55
2019-03-27T16:01:06.810Z,100133.36
2019-03-27T16:03:32.979Z,100138.34
2019-03-27T16:05:59.268Z,100137.28
2019-03-27T16:08:25.429Z,100146.08
2019-03-27T16:10:51.586Z,100148.43
2019-03-27T16:13:18.657Z,100151.88
2019-03-27T16:15:44.807Z,100152.36
2019-03-27T16:18:11.063Z,100148.81
2019-03-27T16:20:37.360Z,100155.41
2019-03-27T16:23:03.626Z,100147.70
2019-03-27T16:25:29.785Z,100155.55
2019-03-27T16:27:55.999Z,100160.28
2019-03-27T16:30:22.254Z,100169.53
2019-03-27T16:32:48.428Z,100178.38
2019-03-27T16:35:14.641Z,100176.28
2019-03-27T16:37:40.792Z,100178.36
2019-03-27T16:40:08.044Z,100180.96
2019-03-27T16:42:34.330Z,100186.63
2019-03-27T16:45:00.502Z,100186.12
2019-03-27T16:47:26.769Z,100192.29
2019-03-27T16:49:52.960Z,100189.48
2019-03-27T16:52:19.147Z,100190.26
2019-03-27T16:54:45.305Z,100192.03
2019-03-27T16:57:11.496Z,100191.27
2019-03-27T16:59:37.771Z,100191.60
2019-03-27T17:02:04.661Z,100197.64
2019-03-27T17:04:30.958Z,100196.61
2019-03-27T17:06:57.112Z,100206.81
2019-03-27T17:09:23.267Z,100213.73
2019-03-27T17:11:49.814Z,100206.08
2019-03-27T17:14:15.983Z,100209.78
2019-03-27T17:16:42.551Z,100222.07
2019-03-27T17:19:08.739Z,100228.45
2019-03-27T17:21:34.904Z,100229.53
2019-03-27T17:24:01.077Z,100231.27
2019-03-27T17:26:27.385Z,100235.04
2019-03-27T17:28:53.649Z,100237.70
2019-03-27T17:31:19.802Z,100241.41
2019-03-27T17:33:46.006Z,100239.84
2019-03-27T17:36:12.168Z,100243.54
2019-03-27T17:38:38.336Z,100246.67
2019-03-27T17:41:04.538Z,100253.35
2019-03-27T17:43:30.699Z,100252.97
2019-03-27T17:45:56.851Z,100252.71
2019-03-27T17:48:23.067Z,100257.52
2019-03-27T17:50:49.228Z,100264.89
2019-03-27T17:53:15.502Z,100266.45
2019-03-27T17:55:41.702Z,100269.19
2019-03-27T17:58:07.870Z,100273.07
2019-03-27T18:00:47.007Z,100274.20
2019-03-27T18:03:13.204Z,100285.50
2019-03-27T18:05:42.460Z,100286.09
2019-03-27T18:08:08.666Z,100283.84
2019-03-27T18:10:34.831Z,100285.11
2019-03-27T18:13:01.011Z,100291.34
2019-03-27T18:15:27.297Z,100295.13
2019-03-27T18:17:53.469Z,100295.74
2019-03-27T18:20:19.646Z,100300.45
2019-03-27T18:22:46.259Z,100308.26
2019-03-27T18:25:12.429Z,100302.25
2019-03-27T18:27:38.603Z,100299.98
2019-03-27T18:30:05.804Z,100298.47
2019-03-27T18:32:31.980Z,100309.80
2019-03-27T18:34:58.152Z,100310.88
2019-03-27T18:37:24.349Z,100309.19
2019-03-27T18:39:50.521Z,100317.06
2019-03-27T18:42:16.693Z,100320.56
2019-03-27T18:44:42.983Z,100326.26
2019-03-27T18:47:09.252Z,100327.94
2019-03-27T18:49:35.444Z,100328.25
2019-03-27T18:52:01.773Z,100326.05
2019-03-27T18:54:28.031Z,100322.78
2019-03-27T18:56:54.191Z,100329.79
2019-03-27T18:59:20.483Z,100325.71
2019-03-27T19:01:46.645Z,100331.63
2019-03-27T19:04:13.003Z,100335.14
2019-03-27T19:06:39.213Z,100333.80
2019-03-27T19:09:07.295Z,100333.21
2019-03-27T19:11:33.552Z,100334.53
2019-03-27T19:13:59.866Z,100332.25
2019-03-27T19:16:26.029Z,100339.20
2019-03-27T19:18:52.186Z,100335.99
2019-03-27T19:21:18.383Z,100339.56
2019-03-27T19:23:44.543Z,100346.02
2019-03-27T19:26:10.705Z,100341.95
2019-03-27T19:28:36.906Z,100351.37
2019-03-27T19:31:03.693Z,100350.07
2019-03-27T19:33:29.943Z,100350.02
2019-03-27T19:35:56.169Z,100353.34
2019-03-27T19:38:22.337Z,100354.81
2019-03-27T19:40:48.498Z,100352.06
2019-03-27T19:43:14.697Z,100360.27
2019-03-27T19:45:41.075Z,100361.18
2019-03-27T19:48:07.240Z,100360.08
2019-03-27T19:50:33.430Z,100354.88
2019-03-27T19:52:59.594Z,100355.70
2019-03-27T19:55:25.757Z,100359.70
2019-03-27T19:57:51.972Z,100362.41
2019-03-27T20:00:19.636Z,100371.01
2019-03-27T20:02:45.797Z,100366.60
2019-03-27T20:05:12.293Z,100362.85
2019-03-27T20:07:38.460Z,100360.73
2019-03-27T20:10:06.154Z,100363.00
2019-03-27T20:12:32.347Z,100365.42
2019-03-27T20:15:11.116Z,100366.45
2019-03-27T20:17:26.729Z,100368.33
2019-03-27T20:19:52.933Z,100370.70
2019-03-27T20:22:19.098Z,100380.61
2019-03-27T20:24:45.258Z,100379.97
2019-03-27T20:27:11.446Z,100387.62
2019-03-27T20:29:37.716Z,100392.94
2019-03-27T20:32:03.878Z,100387.63
2019-03-27T20:34:30.085Z,100390.47
2019-03-27T20:36:56.251Z,100395.13
2019-03-27T20:39:22.409Z,100401.80
2019-03-27T20:41:48.610Z,100401.59
2019-03-27T20:44:14.770Z,100396.52
2019-03-27T20:46:40.938Z,100403.76
2019-03-27T20:49:07.120Z,100408.16
2019-03-27T20:51:33.279Z,100410.75
2019-03-27T20:54:01.406Z,100410.13
2019-03-27T20:56:27.645Z,100412.30
2019-03-27T20:58:53.807Z,100417.72
2019-03-27T21:01:19.981Z,100416.42
2019-03-27T21:03:46.294Z,100425.64
2019-03-27T21:06:12.784Z,100422.72
2019-03-27T21:08:39.045Z,100430.93
2019-03-27T21:11:05.242Z,100430.64
2019-03-27T21:13:31.398Z,100433.87
2019-03-27T21:15:57.569Z,100485.23
2019-03-27T21:18:23.923Z,100479.52
2019-03-27T21:20:50.080Z,100477.87
2019-03-27T21:23:16.230Z,100482.80
2019-03-27T21:25:42.427Z,100485.94
2019-03-27T21:28:08.594Z,100494.07
2019-03-27T21:30:34.853Z,100494.05
2019-03-27T21:33:01.046Z,100498.97
2019-03-27T21:35:27.194Z,100495.37
2019-03-27T21:37:53.349Z,100497.56
2019-03-27T21:40:19.653Z,100500.14
2019-03-27T21:42:45.819Z,100499.29
2019-03-27T21:45:12.175Z,100506.20
2019-03-27T21:47:38.481Z,100518.66
2019-03-27T21:50:06.050Z,100517.91
2019-03-27T21:52:32.209Z,100519.71
2019-03-27T21:54:58.404Z,100529.63
2019-03-27T21:57:24.632Z,100532.45
2019-03-27T21:59:50.905Z,100528.22
2019-03-27T22:02:17.258Z,100529.92
2019-03-27T22:04:43.444Z,100528.13
2019-03-27T22:07:09.597Z,100532.09
2019-03-27T22:09:35.912Z,100530.22
2019-03-27T22:12:02.068Z,100530.73
2019-03-27T22:14:28.226Z,100532.88
2019-03-27T22:16:54.420Z,100531.78
2019-03-27T22:19:20.622Z,100533.55
2019-03-27T22:21:46.884Z,100534.41
2019-03-27T22:24:13.208Z,100541.77
2019-03-27T22:26:39.479Z,100547.33
2019-03-27T22:29:05.658Z,100554.44
2019-03-27T22:31:31.847Z,100556.39
2019-03-27T22:33:58.065Z,100549.59
2019-03-27T22:36:24.335Z,100553.64
2019-03-27T22:38:50.516Z,100558.42
2019-03-27T22:41:16.671Z,100559.14
2019-03-27T22:43:42.852Z,100551.63
2019-03-27T22:46:09.011Z,100555.98
2019-03-27T22:48:35.174Z,100565.21
2019-03-27T22:51:01.328Z,100564.67
2019-03-27T22:53:27.522Z,100560.53
2019-03-27T22:55:53.682Z,100568.86
2019-03-27T22:58:19.944Z,100556.39
2019-03-27T23:00:48.430Z,100557.20
2019-03-27T23:03:18.658Z,100560.56
2019-03-27T23:05:42.959Z,100569.89
2019-03-27T23:08:09.243Z,100570.52
2019-03-27T23:10:35.490Z,100565.84
2019-03-27T23:13:01.654Z,100567.88
2019-03-27T23:15:27.853Z,100558.77
2019-03-27T23:17:54.122Z,100562.08
2019-03-27T23:20:22.044Z,100564.96
2019-03-27T23:22:48.221Z,100565.55
2019-03-27T23:25:14.374Z,100564.17
2019-03-27T23:27:40.541Z,100559.33
2019-03-27T23:30:07.939Z,100563.25
2019-03-27T23:32:34.098Z,100564.48
2019-03-27T23:35:00.459Z,100564.67
2019-03-27T23:37:26.782Z,100574.41
2019-03-27T23:39:52.934Z,100574.73
2019-03-27T23:42:19.195Z,100585.96
2019-03-27T23:44:45.387Z,100586.93
2019-03-27T23:47:11.551Z,100590.41
2019-03-27T23:49:37.700Z,100591.42
2019-03-27T23:52:03.882Z,100596.88
2019-03-27T23:54:30.057Z,100603.39
2019-03-27T23:56:56.212Z,100598.77
2019-03-27T23:59:22.508Z,100602.32
